Time;durP1;ratioP1;P1;durP2;ratioP2;P2;SDS_P1;SDS_P2;PMS_P1;PMS_P2;Temp;Humidity;BMP_temperature;BMP_pressure;BME280_temperature;BME280_humidity;BME280_pressure;Samples;Min_cycle;Max_cycle;Signal;HPM_P1;HPM_P2
2020/12/14 00:00:11;;;;;;;11.20;5.43;;;8.60;84.10;;;;;;5036346;28;20461;-74
2020/12/14 00:02:39;;;;;;;8.77;5.57;;;8.60;83.60;;;;;;5036364;28;20781;-74
2020/12/14 00:05:07;;;;;;;9.20;5.07;;;8.60;83.60;;;;;;5036316;28;20533;-74
2020/12/14 00:07:34;;;;;;;6.47;5.30;;;8.60;84.00;;;;;;5036104;28;20508;-75
2020/12/14 00:10:01;;;;;;;7.00;5.50;;;8.60;84.20;;;;;;5035809;28;20976;-74
2020/12/14 00:12:27;;;;;;;10.30;5.80;;;8.60;84.60;;;;;;5035891;28;21035;-74
2020/12/14 00:14:54;;;;;;;10.97;5.43;;;8.60;84.70;;;;;;5035784;28;20794;-75
2020/12/14 00:17:21;;;;;;;7.90;5.77;;;8.70;84.30;;;;;;5036002;28;20442;-74
2020/12/14 00:19:48;;;;;;;7.50;5.83;;;8.60;84.40;;;;;;5035965;28;20462;-74
2020/12/14 00:22:15;;;;;;;10.77;5.47;;;8.70;84.50;;;;;;5036073;28;20445;-74
2020/12/14 00:24:42;;;;;;;9.40;5.30;;;8.60;83.80;;;;;;5035979;28;20447;-74
2020/12/14 00:27:08;;;;;;;13.27;5.40;;;8.60;84.20;;;;;;5035489;28;21027;-75
2020/12/14 00:29:34;;;;;;;7.23;4.63;;;8.60;84.30;;;;;;5035778;28;20468;-74
2020/12/14 00:32:01;;;;;;;9.80;4.80;;;8.60;84.30;;;;;;5035745;28;20442;-74
2020/12/14 00:34:28;;;;;;;8.70;5.37;;;8.70;84.20;;;;;;5035718;28;20468;-75
2020/12/14 00:36:54;;;;;;;9.77;5.40;;;8.70;84.30;;;;;;5035302;28;20446;-74
2020/12/14 00:39:20;;;;;;;6.57;4.87;;;8.70;84.40;;;;;;5035256;28;20463;-74
2020/12/14 00:41:46;;;;;;;7.30;4.83;;;8.70;84.40;;;;;;5035567;28;20443;-74
2020/12/14 00:44:12;;;;;;;8.20;4.20;;;8.70;84.40;;;;;;5035330;28;20977;-74
2020/12/14 00:46:39;;;;;;;6.47;4.53;;;8.70;84.50;;;;;;5035421;28;20481;-74
2020/12/14 00:49:06;;;;;;;8.23;5.00;;;8.70;84.50;;;;;;5035386;28;20467;-74
2020/12/14 00:51:32;;;;;;;8.30;4.13;;;8.70;84.50;;;;;;5035366;28;20442;-74
2020/12/14 00:53:59;;;;;;;6.60;4.20;;;8.70;84.50;;;;;;5035518;28;20435;-74
2020/12/14 00:56:25;;;;;;;7.30;4.40;;;8.80;84.50;;;;;;5035243;28;20438;-74
2020/12/14 00:58:51;;;;;;;6.10;3.77;;;8.80;84.60;;;;;;5035119;28;20465;-74
2020/12/14 01:01:18;;;;;;;8.90;4.17;;;8.80;84.60;;;;;;5035127;28;20446;-74
2020/12/14 01:03:45;;;;;;;9.80;3.87;;;8.80;84.60;;;;;;5034954;28;20956;-74
2020/12/14 01:06:12;;;;;;;7.07;4.30;;;8.80;84.40;;;;;;5034708;28;20967;-75
2020/12/14 01:08:40;;;;;;;5.40;3.80;;;8.80;84.40;;;;;;5035038;28;20470;-74
2020/12/14 01:11:06;;;;;;;6.53;3.10;;;8.80;84.30;;;;;;5034680;28;20941;-74
2020/12/14 01:13:33;;;;;;;10.93;3.70;;;8.80;83.80;;;;;;5034900;28;20442;-74
2020/12/14 01:15:59;;;;;;;6.33;3.83;;;8.80;83.70;;;;;;5034900;28;20461;-74
2020/12/14 01:18:25;;;;;;;6.50;2.80;;;8.80;83.90;;;;;;5034777;28;20486;-75
2020/12/14 01:20:51;;;;;;;3.87;1.83;;;8.80;82.90;;;;;;5034382;28;20447;-74
2020/12/14 01:23:19;;;;;;;5.50;2.10;;;8.90;81.70;;;;;;5034783;28;20449;-77
2020/12/14 01:25:45;;;;;;;4.40;2.00;;;8.90;81.20;;;;;;5034707;28;20805;-74
2020/12/14 01:28:11;;;;;;;2.97;2.00;;;8.90;80.90;;;;;;5034820;28;20492;-74
2020/12/14 01:30:38;;;;;;;5.87;2.27;;;8.80;80.60;;;;;;5034629;28;20442;-74
2020/12/14 01:33:04;;;;;;;3.63;2.30;;;8.90;80.50;;;;;;5034580;28;20449;-74
2020/12/14 01:35:30;;;;;;;6.60;1.83;;;8.80;80.80;;;;;;5034154;28;20458;-74
2020/12/14 01:37:56;;;;;;;2.37;2.07;;;8.80;80.80;;;;;;5034496;28;20442;-74
2020/12/14 01:40:23;;;;;;;4.53;2.00;;;8.80;81.00;;;;;;5034397;28;20449;-74
2020/12/14 01:42:50;;;;;;;4.80;1.80;;;8.70;80.60;;;;;;5034384;28;20445;-74
2020/12/14 01:45:16;;;;;;;3.30;2.13;;;8.60;81.20;;;;;;5034391;28;20450;-74
2020/12/14 01:47:43;;;;;;;6.40;2.03;;;8.60;81.40;;;;;;5034203;28;20485;-74
2020/12/14 01:50:12;;;;;;;5.93;2.00;;;8.50;81.50;;;;;;5034526;28;20445;-74
2020/12/14 01:52:40;;;;;;;7.00;2.00;;;8.60;82.10;;;;;;5034185;28;20473;-74
2020/12/14 01:55:08;;;;;;;2.40;1.93;;;8.60;81.90;;;;;;5033892;28;20898;-74
2020/12/14 01:57:37;;;;;;;6.67;2.50;;;8.50;81.90;;;;;;5034098;28;20449;-74
2020/12/14 02:00:05;;;;;;;3.73;2.10;;;8.50;82.30;;;;;;5034031;28;20508;-75
2020/12/14 02:02:31;;;;;;;6.30;2.30;;;8.50;82.20;;;;;;5033832;28;20974;-74
2020/12/14 02:04:57;;;;;;;3.23;2.03;;;8.50;82.70;;;;;;5034020;28;20443;-74
2020/12/14 02:07:24;;;;;;;6.37;2.10;;;8.50;82.50;;;;;;5033906;28;20712;-74
2020/12/14 02:09:53;;;;;;;5.03;2.00;;;8.50;82.80;;;;;;5034008;28;20557;-74
2020/12/14 02:12:21;;;;;;;6.60;1.93;;;8.50;82.60;;;;;;5033946;28;20516;-74
2020/12/14 02:14:49;;;;;;;3.97;2.13;;;8.50;82.50;;;;;;5034030;28;20442;-74
2020/12/14 02:17:18;;;;;;;5.20;2.30;;;8.50;82.70;;;;;;5034165;28;20434;-74
2020/12/14 02:19:45;;;;;;;2.97;2.70;;;8.50;82.80;;;;;;5033895;28;20462;-74
2020/12/14 02:22:11;;;;;;;6.50;2.40;;;8.50;83.30;;;;;;5033788;28;20576;-74
2020/12/14 02:24:38;;;;;;;4.77;1.50;;;8.50;83.60;;;;;;5033738;28;20454;-74
2020/12/14 02:27:04;;;;;;;5.17;2.40;;;8.50;83.90;;;;;;5033607;28;20572;-74
2020/12/14 02:29:31;;;;;;;6.97;2.70;;;8.60;84.20;;;;;;5033514;28;20478;-74
2020/12/14 02:31:57;;;;;;;6.57;3.27;;;8.60;84.30;;;;;;5032566;28;20449;-74
2020/12/14 02:34:23;;;;;;;10.97;3.60;;;8.60;84.00;;;;;;5033599;28;20442;-74
2020/12/14 02:36:49;;;;;;;4.13;2.60;;;8.60;83.80;;;;;;5033231;28;20481;-74
2020/12/14 02:39:15;;;;;;;7.47;4.50;;;8.50;83.80;;;;;;5033298;28;20470;-74
2020/12/14 02:41:43;;;;;;;3.70;2.40;;;8.40;84.00;;;;;;5033477;28;20858;-74
2020/12/14 02:44:09;;;;;;;7.20;2.60;;;8.40;84.70;;;;;;5033393;28;20438;-74
2020/12/14 02:46:35;;;;;;;5.20;3.00;;;8.30;85.10;;;;;;5033286;28;20489;-74
2020/12/14 02:49:02;;;;;;;4.50;2.07;;;8.30;85.50;;;;;;5033422;28;20462;-74
2020/12/14 02:51:28;;;;;;;4.33;1.83;;;8.20;85.90;;;;;;5033303;28;20442;-74
2020/12/14 02:53:54;;;;;;;3.50;1.60;;;8.20;86.30;;;;;;5033276;28;20442;-74
2020/12/14 02:56:20;;;;;;;3.20;1.73;;;8.20;86.50;;;;;;5033310;28;20449;-74
2020/12/14 02:58:47;;;;;;;3.43;1.80;;;8.20;86.60;;;;;;5033292;28;20469;-74
2020/12/14 03:01:14;;;;;;;4.70;2.53;;;8.30;86.80;;;;;;5033259;28;20442;-74
2020/12/14 03:03:40;;;;;;;3.50;2.00;;;8.30;87.00;;;;;;5032926;28;20446;-74
2020/12/14 03:06:06;;;;;;;2.90;1.97;;;8.30;87.20;;;;;;5033179;28;20453;-74
2020/12/14 03:08:32;;;;;;;3.80;2.10;;;8.30;87.30;;;;;;5033071;28;20491;-74
2020/12/14 03:10:58;;;;;;;1.63;1.50;;;8.30;87.60;;;;;;5033197;28;20438;-74
2020/12/14 03:13:25;;;;;;;3.37;2.07;;;8.40;87.70;;;;;;5033145;28;20823;-74
2020/12/14 03:15:52;;;;;;;6.30;3.37;;;8.40;87.60;;;;;;5032877;28;20446;-74
2020/12/14 03:18:18;;;;;;;3.23;1.70;;;8.40;87.60;;;;;;5033190;28;20459;-74
2020/12/14 03:20:45;;;;;;;4.63;2.13;;;8.40;87.70;;;;;;5032921;28;20940;-74
2020/12/14 03:23:11;;;;;;;3.93;1.67;;;8.40;87.80;;;;;;5033416;28;20446;-74
2020/12/14 03:25:41;;;;;;;4.17;2.00;;;8.50;87.80;;;;;;5033195;28;20446;-74
2020/12/14 03:28:07;;;;;;;4.33;1.77;;;8.40;87.90;;;;;;5032919;28;20491;-74
2020/12/14 03:30:33;;;;;;;6.23;1.53;;;8.40;88.10;;;;;;5033932;28;20442;-74
2020/12/14 03:33:00;;;;;;;6.63;2.00;;;8.40;88.30;;;;;;5037831;28;20449;-74
2020/12/14 03:35:26;;;;;;;3.80;1.57;;;8.40;88.50;;;;;;5032631;28;20987;-74
2020/12/14 03:37:52;;;;;;;8.10;1.93;;;8.40;88.70;;;;;;5033168;28;20442;-74
2020/12/14 03:40:19;;;;;;;5.90;2.03;;;8.50;88.80;;;;;;5032909;28;20443;-74
2020/12/14 03:42:45;;;;;;;4.93;1.63;;;8.50;88.70;;;;;;5032877;28;20439;-74
2020/12/14 03:45:11;;;;;;;4.77;1.67;;;8.50;88.70;;;;;;5036636;28;20438;-74
2020/12/14 03:47:37;;;;;;;3.30;1.70;;;8.40;89.00;;;;;;5036284;28;21011;-74
2020/12/14 03:50:04;;;;;;;6.40;1.60;;;8.40;89.40;;;;;;5036481;28;20469;-74
2020/12/14 03:52:31;;;;;;;4.93;2.50;;;8.40;89.50;;;;;;5036560;28;20445;-75
2020/12/14 03:54:57;;;;;;;18.63;2.27;;;8.40;89.60;;;;;;5037639;28;20446;-74
2020/12/14 03:57:23;;;;;;;4.93;1.80;;;8.50;89.40;;;;;;5038226;28;20447;-74
2020/12/14 03:59:49;;;;;;;5.20;2.10;;;8.40;89.50;;;;;;5036227;28;20466;-74
2020/12/14 04:02:15;;;;;;;3.10;1.60;;;8.50;89.70;;;;;;5036509;28;20449;-74
2020/12/14 04:04:42;;;;;;;3.00;2.00;;;8.50;89.60;;;;;;5036218;28;20442;-74
2020/12/14 04:07:09;;;;;;;4.30;1.90;;;8.60;89.70;;;;;;5036182;28;20536;-74
2020/12/14 04:09:35;;;;;;;8.87;2.50;;;8.60;89.70;;;;;;5036078;28;20462;-74
2020/12/14 04:12:01;;;;;;;4.40;2.10;;;8.60;89.60;;;;;;5036116;28;20445;-74
2020/12/14 04:14:27;;;;;;;4.70;2.20;;;8.60;89.40;;;;;;5036083;28;20434;-74
2020/12/14 04:16:53;;;;;;;4.77;1.73;;;8.70;89.20;;;;;;5035932;28;20445;-74
2020/12/14 04:19:22;;;;;;;5.17;2.67;;;8.70;89.40;;;;;;5035961;28;20867;-74
2020/12/14 04:21:49;;;;;;;5.60;1.80;;;8.70;89.20;;;;;;5036527;28;20458;-74
2020/12/14 04:24:16;;;;;;;2.40;1.60;;;8.60;89.30;;;;;;5035986;28;20434;-74
2020/12/14 04:26:43;;;;;;;3.57;1.60;;;8.60;89.50;;;;;;5035777;28;20481;-74
2020/12/14 04:29:09;;;;;;;3.20;1.50;;;8.60;89.50;;;;;;5035300;28;20979;-74
2020/12/14 04:31:35;;;;;;;3.90;2.00;;;8.60;89.60;;;;;;5035849;28;20450;-74
2020/12/14 04:34:02;;;;;;;2.63;1.33;;;8.70;89.70;;;;;;5035878;28;20447;-74
2020/12/14 04:36:29;;;;;;;3.60;1.83;;;8.70;89.70;;;;;;5035234;28;20458;-74
2020/12/14 04:38:55;;;;;;;1.70;1.33;;;8.60;89.40;;;;;;5035674;28;20462;-74
2020/12/14 04:41:22;;;;;;;5.03;1.57;;;8.60;89.70;;;;;;5036424;28;20796;-74
2020/12/14 04:43:50;;;;;;;3.30;2.70;;;8.60;89.70;;;;;;5035427;28;20438;-74
2020/12/14 04:46:17;;;;;;;4.27;1.83;;;8.60;90.00;;;;;;5035367;28;20927;-74
2020/12/14 04:48:44;;;;;;;2.43;2.23;;;8.60;90.20;;;;;;5035388;28;20493;-74
2020/12/14 04:51:11;;;;;;;1.73;1.60;;;8.60;90.10;;;;;;5035436;28;20446;-74
2020/12/14 04:53:40;;;;;;;2.03;1.50;;;8.60;90.20;;;;;;5035365;28;20454;-74
2020/12/14 04:56:08;;;;;;;4.37;1.90;;;8.70;90.20;;;;;;5034208;28;20928;-74
2020/12/14 04:58:36;;;;;;;4.10;2.13;;;8.70;90.20;;;;;;5035271;28;20477;-74
2020/12/14 05:01:03;;;;;;;2.90;1.40;;;8.70;90.20;;;;;;5035307;28;20453;-74
2020/12/14 05:03:30;;;;;;;2.43;1.53;;;8.70;90.20;;;;;;5034992;28;20870;-74
2020/12/14 05:05:56;;;;;;;4.63;1.73;;;8.80;90.20;;;;;;5034939;28;20971;-74
2020/12/14 05:08:26;;;;;;;1.50;1.30;;;8.80;90.20;;;;;;5035025;28;20493;-74
2020/12/14 05:10:53;;;;;;;2.97;1.77;;;8.90;90.20;;;;;;5034750;28;20446;-74
2020/12/14 05:13:19;;;;;;;4.57;1.50;;;8.90;90.10;;;;;;5035037;28;20446;-74
2020/12/14 05:15:46;;;;;;;1.60;1.40;;;9.00;90.10;;;;;;5035033;28;20904;-74
2020/12/14 05:18:14;;;;;;;6.03;1.57;;;9.00;90.00;;;;;;5034951;28;20516;-74
2020/12/14 05:20:41;;;;;;;3.17;1.87;;;9.00;89.70;;;;;;5034925;28;20454;-74
2020/12/14 05:23:09;;;;;;;6.70;1.90;;;9.00;89.20;;;;;;5035054;28;20437;-74
2020/12/14 05:25:36;;;;;;;3.27;1.97;;;9.10;89.10;;;;;;5035326;28;20454;-74
2020/12/14 05:28:11;;;;;;;4.83;2.03;;;9.00;88.70;;;;;;5034396;28;20481;-74
2020/12/14 05:30:40;;;;;;;2.93;2.07;;;9.00;88.50;;;;;;5034457;28;20885;-74
2020/12/14 05:33:07;;;;;;;4.73;2.30;;;9.00;88.50;;;;;;5034546;28;20451;-74
2020/12/14 05:35:35;;;;;;;3.60;2.80;;;9.00;88.40;;;;;;5034442;28;20557;-74
2020/12/14 05:38:16;;;;;;;4.80;2.63;;;8.90;88.40;;;;;;5034708;28;20470;-74
2020/12/14 05:40:43;;;;;;;4.00;2.63;;;8.90;88.60;;;;;;5034648;28;20512;-74
2020/12/14 05:43:10;;;;;;;4.07;2.70;;;8.80;88.70;;;;;;5034482;28;20439;-74
2020/12/14 05:45:36;;;;;;;7.23;2.50;;;8.70;89.10;;;;;;5034437;28;20518;-74
2020/12/14 05:48:03;;;;;;;6.60;3.83;;;8.70;89.60;;;;;;5034184;28;20482;-74
2020/12/14 05:50:30;;;;;;;2.50;2.30;;;8.70;89.70;;;;;;5034340;28;20449;-74
2020/12/14 05:53:04;;;;;;;3.67;3.07;;;8.70;89.70;;;;;;5034298;28;20453;-74
2020/12/14 05:55:34;;;;;;;4.47;3.20;;;8.80;89.70;;;;;;5034546;28;20422;-74
2020/12/14 05:58:02;;;;;;;5.23;2.90;;;8.70;89.50;;;;;;5034388;28;20841;-74
2020/12/14 06:00:31;;;;;;;8.10;2.80;;;8.70;89.30;;;;;;5034520;28;20449;-74
2020/12/14 06:02:57;;;;;;;4.23;2.60;;;8.70;89.40;;;;;;5034268;28;20458;-74
2020/12/14 06:05:25;;;;;;;5.63;2.93;;;8.70;89.40;;;;;;5034366;28;20439;-74
2020/12/14 06:07:59;;;;;;;7.03;3.40;;;8.60;89.50;;;;;;5033851;28;20473;-74
2020/12/14 06:10:31;;;;;;;7.37;3.07;;;8.70;89.70;;;;;;5034230;28;20426;-74
2020/12/14 06:13:06;;;;;;;3.47;3.13;;;8.60;89.50;;;;;;5033937;28;20497;-74
2020/12/14 06:15:33;;;;;;;3.93;3.03;;;8.60;89.70;;;;;;5033964;28;20480;-74
2020/12/14 06:18:02;;;;;;;8.50;3.53;;;8.60;89.80;;;;;;5033793;28;20423;-74
2020/12/14 06:20:28;;;;;;;7.47;3.67;;;8.60;89.80;;;;;;5033679;28;20890;-74
2020/12/14 06:23:02;;;;;;;6.90;3.50;;;8.70;90.00;;;;;;5033854;28;20447;-74
2020/12/14 06:25:29;;;;;;;4.30;3.30;;;8.70;90.10;;;;;;5033755;28;20423;-74
2020/12/14 06:27:55;;;;;;;3.80;3.00;;;8.70;90.10;;;;;;5033660;28;20473;-74
2020/12/14 06:30:32;;;;;;;5.30;3.47;;;8.70;90.10;;;;;;5033811;28;20852;-74
2020/12/14 06:32:59;;;;;;;4.50;3.07;;;8.80;90.10;;;;;;5033715;28;20425;-75
2020/12/14 06:35:42;;;;;;;4.87;3.10;;;8.80;90.10;;;;;;5033475;28;20482;-75
2020/12/14 06:38:09;;;;;;;11.43;4.17;;;8.80;90.40;;;;;;5033682;28;20477;-75
2020/12/14 06:40:59;;;;;;;7.87;3.70;;;8.80;90.00;;;;;;5033811;28;20438;-75
2020/12/14 06:43:29;;;;;;;7.27;3.67;;;8.80;89.90;;;;;;5033544;28;20943;-75
2020/12/14 06:45:59;;;;;;;7.13;3.33;;;8.70;90.00;;;;;;5033888;28;20438;-74
2020/12/14 06:48:39;;;;;;;5.27;3.43;;;8.80;90.10;;;;;;5033703;28;20991;-74
2020/12/14 06:51:06;;;;;;;6.23;3.60;;;8.80;90.20;;;;;;5033667;28;20433;-75
2020/12/14 06:53:39;;;;;;;4.50;3.50;;;8.80;90.10;;;;;;5033701;28;20447;-74
2020/12/14 06:56:06;;;;;;;5.03;4.00;;;8.80;90.40;;;;;;5033621;28;20423;-74
2020/12/14 06:58:34;;;;;;;7.23;4.07;;;8.80;90.40;;;;;;5033338;28;20466;-74
2020/12/14 07:01:01;;;;;;;5.97;3.53;;;8.80;90.50;;;;;;5033490;28;20617;-74
2020/12/14 07:03:37;;;;;;;5.70;3.10;;;8.90;90.60;;;;;;5033421;28;20463;-74
2020/12/14 07:06:05;;;;;;;5.73;3.50;;;8.80;90.60;;;;;;5033346;28;20449;-74
2020/12/14 07:08:39;;;;;;;5.53;3.23;;;8.80;90.60;;;;;;5033257;28;20493;-74
2020/12/14 07:11:14;;;;;;;7.83;3.70;;;8.80;90.70;;;;;;5033238;28;20431;-74
2020/12/14 07:13:40;;;;;;;6.10;3.53;;;8.80;90.90;;;;;;5033232;28;20446;-73
2020/12/14 07:16:08;;;;;;;6.30;4.20;;;8.80;91.20;;;;;;5033225;28;20556;-74
2020/12/14 07:18:34;;;;;;;7.53;4.10;;;8.80;91.40;;;;;;5034371;28;20467;-73
2020/12/14 07:21:07;;;;;;;5.60;4.40;;;8.80;91.60;;;;;;5037126;28;20909;-73
2020/12/14 07:23:34;;;;;;;9.83;4.70;;;8.80;91.80;;;;;;5036881;28;20898;-73
2020/12/14 07:26:01;;;;;;;6.67;4.90;;;8.80;92.10;;;;;;5037024;28;20446;-73
2020/12/14 07:28:39;;;;;;;8.37;4.47;;;8.80;92.40;;;;;;5036852;28;20486;-73
2020/12/14 07:31:11;;;;;;;6.57;4.30;;;8.80;92.50;;;;;;5036913;28;20442;-73
2020/12/14 07:33:38;;;;;;;7.53;4.00;;;8.80;92.50;;;;;;5036897;28;20438;-73
2020/12/14 07:36:08;;;;;;;5.90;4.20;;;8.80;92.50;;;;;;5036740;28;20458;-73
2020/12/14 07:38:44;;;;;;;8.40;4.23;;;8.90;92.60;;;;;;5037062;28;20465;-73
2020/12/14 07:41:11;;;;;;;6.27;3.63;;;8.80;92.60;;;;;;5036773;28;20429;-73
2020/12/14 07:43:46;;;;;;;7.50;4.13;;;8.90;92.60;;;;;;5036583;28;20434;-74
2020/12/14 07:46:21;;;;;;;7.30;4.50;;;8.90;92.60;;;;;;5036378;28;20947;-73
2020/12/14 07:48:58;;;;;;;7.10;4.40;;;8.90;92.70;;;;;;5036480;28;20489;-74
2020/12/14 07:51:26;;;;;;;7.47;4.70;;;8.90;92.70;;;;;;5036463;28;20485;-74
2020/12/14 07:53:53;;;;;;;5.47;4.53;;;8.90;93.00;;;;;;5036474;28;20449;-74
2020/12/14 07:56:20;;;;;;;5.20;3.90;;;8.90;93.00;;;;;;5036441;28;20427;-73
2020/12/14 07:58:48;;;;;;;7.53;4.13;;;8.90;93.10;;;;;;5036358;28;20533;-73
2020/12/14 08:01:16;;;;;;;7.13;4.23;;;8.90;93.10;;;;;;5036280;28;20480;-73
2020/12/14 08:03:42;;;;;;;6.37;4.20;;;8.90;93.20;;;;;;5036569;28;20431;-74
2020/12/14 08:06:13;;;;;;;5.93;4.20;;;8.90;93.20;;;;;;5036254;28;20447;-74
2020/12/14 08:08:41;;;;;;;9.80;4.30;;;8.90;93.20;;;;;;5036097;28;20486;-74
2020/12/14 08:11:08;;;;;;;5.57;4.50;;;9.00;93.20;;;;;;5036169;28;20442;-74
2020/12/14 08:13:35;;;;;;;5.87;4.13;;;9.00;93.10;;;;;;5035889;28;20807;-74
2020/12/14 08:16:03;;;;;;;9.53;4.80;;;9.00;93.10;;;;;;5036066;28;20431;-74
2020/12/14 08:18:30;;;;;;;9.13;4.63;;;9.00;93.00;;;;;;5036278;28;20521;-74
2020/12/14 08:20:56;;;;;;;8.73;4.90;;;9.00;93.00;;;;;;5035580;28;20821;-74
2020/12/14 08:23:26;;;;;;;6.60;4.60;;;9.10;92.90;;;;;;5036223;28;20439;-74
2020/12/14 08:25:53;;;;;;;7.67;4.50;;;9.10;93.00;;;;;;5036140;28;20427;-74
2020/12/14 08:28:28;;;;;;;8.00;5.10;;;9.10;93.00;;;;;;5035716;28;20482;-74
2020/12/14 08:30:54;;;;;;;12.20;4.83;;;9.20;93.20;;;;;;5034591;28;20418;-74
2020/12/14 08:33:22;;;;;;;6.80;4.57;;;9.20;93.60;;;;;;5035615;28;20917;-74
2020/12/14 08:35:50;;;;;;;9.90;4.93;;;9.20;93.70;;;;;;5035620;28;20462;-74
2020/12/14 08:38:18;;;;;;;4.20;3.80;;;9.20;93.80;;;;;;5035611;28;20474;-74
2020/12/14 08:40:52;;;;;;;4.30;2.93;;;9.20;94.10;;;;;;5035572;28;20443;-74
2020/12/14 08:43:19;;;;;;;4.20;3.20;;;9.30;94.20;;;;;;5035685;28;20427;-74
2020/12/14 08:46:03;;;;;;;4.30;3.10;;;9.20;94.30;;;;;;5035241;28;20816;-74
2020/12/14 08:48:32;;;;;;;3.23;2.27;;;9.30;94.40;;;;;;5035359;28;20486;-74
2020/12/14 08:51:06;;;;;;;4.47;2.50;;;9.30;94.60;;;;;;5035598;28;20474;-74
2020/12/14 08:53:32;;;;;;;5.00;2.23;;;9.30;94.80;;;;;;5035652;28;20421;-74
2020/12/14 08:56:04;;;;;;;3.50;2.20;;;9.30;94.90;;;;;;5036621;28;20449;-74
2020/12/14 08:58:30;;;;;;;4.40;2.43;;;9.30;94.90;;;;;;5035773;28;20545;-74
2020/12/14 09:01:07;;;;;;;4.60;2.40;;;9.40;94.90;;;;;;5035292;28;20465;-75
2020/12/14 09:03:45;;;;;;;4.37;2.97;;;9.40;94.90;;;;;;5034997;28;20426;-75
2020/12/14 09:06:19;;;;;;;6.27;4.70;;;9.50;94.80;;;;;;5035238;28;20415;-75
2020/12/14 09:08:59;;;;;;;5.37;3.80;;;9.60;94.70;;;;;;5035966;28;20486;-75
2020/12/14 09:11:28;;;;;;;6.10;4.70;;;9.60;94.40;;;;;;5035219;28;20430;-74
2020/12/14 09:13:55;;;;;;;8.63;5.17;;;9.60;94.10;;;;;;5034964;28;20450;-75
2020/12/14 09:16:22;;;;;;;8.83;5.67;;;9.70;94.00;;;;;;5035072;28;20880;-74
2020/12/14 09:18:49;;;;;;;5.03;3.97;;;9.70;93.80;;;;;;5035051;28;20465;-74
2020/12/14 09:21:15;;;;;;;6.77;3.90;;;9.70;93.60;;;;;;5034672;28;20952;-74
2020/12/14 09:23:42;;;;;;;9.80;4.70;;;9.70;93.50;;;;;;5034920;28;20449;-75
2020/12/14 09:26:08;;;;;;;8.30;4.90;;;9.70;93.30;;;;;;5034867;28;20454;-74
2020/12/14 09:28:34;;;;;;;7.87;4.70;;;9.70;93.10;;;;;;5034637;28;20490;-74
2020/12/14 09:31:01;;;;;;;7.80;4.93;;;9.70;93.10;;;;;;5034425;28;20944;-74
2020/12/14 09:33:27;;;;;;;5.47;4.33;;;9.70;93.10;;;;;;5034387;28;20860;-74
2020/12/14 09:35:54;;;;;;;6.20;4.20;;;9.70;93.10;;;;;;5034505;28;20458;-74
2020/12/14 09:38:20;;;;;;;6.80;4.80;;;9.70;93.00;;;;;;5034723;28;20462;-74
2020/12/14 09:40:51;;;;;;;5.50;4.67;;;9.70;93.00;;;;;;5034273;28;20469;-74
2020/12/14 09:43:18;;;;;;;7.03;4.00;;;9.70;93.00;;;;;;5034466;28;20461;-74
2020/12/14 09:45:44;;;;;;;6.63;4.73;;;9.70;93.10;;;;;;5034590;28;20431;-74
2020/12/14 09:48:10;;;;;;;5.73;4.30;;;9.70;93.00;;;;;;5034303;28;20486;-74
2020/12/14 09:50:37;;;;;;;8.50;4.50;;;9.70;93.10;;;;;;5034351;28;20446;-75
2020/12/14 09:53:04;;;;;;;6.33;4.17;;;9.70;93.20;;;;;;5034707;28;20423;-74
2020/12/14 09:55:30;;;;;;;5.77;4.77;;;9.70;93.20;;;;;;5034298;28;20441;-74
2020/12/14 09:57:57;;;;;;;5.17;4.30;;;9.70;93.20;;;;;;5034151;28;20810;-74
2020/12/14 10:00:23;;;;;;;6.03;4.50;;;9.70;93.10;;;;;;5034159;28;20446;-74
2020/12/14 10:02:49;;;;;;;7.63;4.60;;;9.80;93.20;;;;;;5033804;28;20431;-73
2020/12/14 10:05:15;;;;;;;4.57;3.63;;;9.80;93.20;;;;;;5034094;28;20497;-74
2020/12/14 10:07:43;;;;;;;6.00;4.03;;;9.80;93.20;;;;;;5033931;28;20481;-74
2020/12/14 10:10:11;;;;;;;5.07;4.57;;;9.80;93.10;;;;;;5034155;28;20521;-74
2020/12/14 10:12:40;;;;;;;5.23;4.73;;;9.80;93.10;;;;;;5034003;28;20427;-74
2020/12/14 10:15:09;;;;;;;8.30;4.80;;;9.80;93.20;;;;;;5033932;28;20453;-74
2020/12/14 10:17:35;;;;;;;9.33;5.20;;;9.90;93.20;;;;;;5033918;28;20891;-74
2020/12/14 10:20:01;;;;;;;7.80;4.77;;;9.90;93.10;;;;;;5033758;28;20493;-74
2020/12/14 10:22:27;;;;;;;8.40;4.10;;;9.90;93.10;;;;;;5033734;28;20446;-74
2020/12/14 10:24:54;;;;;;;7.30;4.73;;;9.90;93.10;;;;;;5033496;28;20920;-74
2020/12/14 10:27:21;;;;;;;8.00;4.57;;;10.00;92.50;;;;;;5033688;28;20453;-74
2020/12/14 10:29:47;;;;;;;9.90;4.60;;;10.00;92.60;;;;;;5033541;28;20468;-74
2020/12/14 10:32:14;;;;;;;7.13;4.27;;;10.00;92.60;;;;;;5034073;28;20434;-74
2020/12/14 10:34:40;;;;;;;5.93;4.20;;;10.00;92.50;;;;;;5034262;28;20442;-74
2020/12/14 10:37:06;;;;;;;6.33;4.70;;;10.00;92.50;;;;;;5033680;28;20462;-75
2020/12/14 10:39:33;;;;;;;6.40;4.33;;;10.00;92.50;;;;;;5033165;28;20968;-74
2020/12/14 10:41:59;;;;;;;5.83;4.10;;;10.00;92.50;;;;;;5033515;28;20450;-74
2020/12/14 10:44:29;;;;;;;6.80;5.00;;;10.00;92.50;;;;;;5033536;28;20438;-74
2020/12/14 10:46:56;;;;;;;7.03;5.20;;;10.00;92.50;;;;;;5033518;28;20446;-74
2020/12/14 10:49:23;;;;;;;5.43;4.30;;;10.00;92.50;;;;;;5033531;28;20486;-74
2020/12/14 10:51:49;;;;;;;6.40;4.73;;;10.10;93.00;;;;;;5033413;28;20847;-74
2020/12/14 10:54:15;;;;;;;7.70;4.97;;;10.10;92.80;;;;;;5033125;28;20454;-74
2020/12/14 10:56:41;;;;;;;7.20;4.63;;;10.10;92.70;;;;;;5033008;28;20814;-75
2020/12/14 10:59:07;;;;;;;6.67;4.80;;;10.10;92.70;;;;;;5033332;28;20458;-75
2020/12/14 11:01:34;;;;;;;11.13;6.27;;;10.20;92.80;;;;;;5033316;28;20514;-75
2020/12/14 11:04:00;;;;;;;10.50;6.10;;;10.20;92.80;;;;;;5033307;28;20449;-75
2020/12/14 11:06:30;;;;;;;8.37;5.57;;;10.30;92.90;;;;;;5033296;28;20434;-75
2020/12/14 11:08:56;;;;;;;6.87;5.37;;;10.40;92.90;;;;;;5033116;28;20593;-75
2020/12/14 11:11:23;;;;;;;6.13;4.80;;;10.40;92.90;;;;;;5033165;28;20444;-75
2020/12/14 11:13:49;;;;;;;6.53;5.53;;;10.50;92.90;;;;;;5033297;28;20442;-75
2020/12/14 11:16:16;;;;;;;8.03;4.73;;;10.60;92.80;;;;;;5033412;28;20531;-75
2020/12/14 11:18:43;;;;;;;5.93;4.40;;;10.60;92.80;;;;;;5033063;28;20541;-75
2020/12/14 11:21:09;;;;;;;6.90;4.77;;;10.60;92.70;;;;;;5032830;28;20967;-75
2020/12/14 11:23:35;;;;;;;8.27;5.43;;;10.70;92.70;;;;;;5033076;28;20453;-75
2020/12/14 11:26:02;;;;;;;6.83;6.13;;;10.80;92.60;;;;;;5032992;28;20496;-74
2020/12/14 11:28:28;;;;;;;7.07;5.93;;;10.90;92.50;;;;;;5033184;28;20487;-74
2020/12/14 11:30:54;;;;;;;9.70;5.40;;;10.90;92.50;;;;;;5032658;28;20964;-74
2020/12/14 11:33:21;;;;;;;10.33;6.57;;;10.90;92.30;;;;;;5033002;28;20449;-74
2020/12/14 11:35:48;;;;;;;7.87;5.83;;;10.90;92.30;;;;;;5032745;28;20470;-75
2020/12/14 11:38:14;;;;;;;6.87;5.23;;;11.00;92.40;;;;;;5032857;28;20469;-75
2020/12/14 11:40:41;;;;;;;7.53;5.70;;;11.00;92.50;;;;;;5033160;28;20442;-75
2020/12/14 11:43:07;;;;;;;5.83;4.80;;;11.10;92.60;;;;;;5032985;28;20508;-75
2020/12/14 11:45:33;;;;;;;8.73;6.23;;;11.20;92.60;;;;;;5032893;28;20450;-75
2020/12/14 11:48:00;;;;;;;6.40;5.30;;;11.20;92.50;;;;;;5032769;28;20490;-76
2020/12/14 11:50:26;;;;;;;5.00;4.50;;;11.30;92.60;;;;;;5032901;28;20445;-76
2020/12/14 11:52:53;;;;;;;7.70;5.70;;;11.30;92.60;;;;;;5032824;28;20850;-75
2020/12/14 11:55:19;;;;;;;7.73;5.97;;;11.40;92.50;;;;;;5032533;28;20951;-75
2020/12/14 11:57:45;;;;;;;5.87;5.27;;;11.40;92.50;;;;;;5032937;28;20423;-76
2020/12/14 12:00:12;;;;;;;5.97;5.07;;;11.50;92.50;;;;;;5032798;28;20466;-75
2020/12/14 12:02:38;;;;;;;6.70;5.20;;;11.60;92.60;;;;;;5032789;28;20442;-75
2020/12/14 12:05:05;;;;;;;9.73;4.90;;;11.60;92.50;;;;;;5034556;28;20427;-75
2020/12/14 12:07:31;;;;;;;5.90;4.40;;;11.70;92.40;;;;;;5035884;28;20925;-75
2020/12/14 12:09:58;;;;;;;9.23;4.57;;;11.80;92.30;;;;;;5036394;28;20462;-76
2020/12/14 12:12:24;;;;;;;6.63;4.90;;;11.80;91.90;;;;;;5036387;28;20451;-76
2020/12/14 12:14:50;;;;;;;6.00;3.93;;;11.90;91.70;;;;;;5035953;28;20929;-75
2020/12/14 12:17:19;;;;;;;7.47;4.47;;;12.10;91.80;;;;;;5035804;28;20837;-75
2020/12/14 12:19:45;;;;;;;5.63;3.90;;;12.30;91.70;;;;;;5036085;28;20495;-76
2020/12/14 12:22:11;;;;;;;7.67;5.33;;;12.40;91.20;;;;;;5036091;28;20439;-75
2020/12/14 12:24:38;;;;;;;9.63;4.17;;;12.50;90.60;;;;;;5035945;28;20512;-75
2020/12/14 12:27:05;;;;;;;7.93;5.10;;;12.40;90.50;;;;;;5035623;28;20453;-78
2020/12/14 12:29:31;;;;;;;10.00;4.53;;;12.40;90.00;;;;;;5035876;28;20491;-75
2020/12/14 12:31:58;;;;;;;8.10;5.00;;;12.40;90.00;;;;;;5035531;28;20446;-75
2020/12/14 12:34:24;;;;;;;8.73;4.97;;;12.50;90.00;;;;;;5035740;28;20443;-75
2020/12/14 12:36:51;;;;;;;6.90;5.20;;;12.50;89.60;;;;;;5035908;28;20454;-75
2020/12/14 12:39:18;;;;;;;8.40;4.60;;;12.50;89.60;;;;;;5035820;28;20823;-75
2020/12/14 12:41:45;;;;;;;5.97;5.10;;;12.60;89.60;;;;;;5035695;28;20505;-75
2020/12/14 12:44:12;;;;;;;6.03;4.27;;;12.90;90.30;;;;;;5036227;28;20458;-75
2020/12/14 12:46:38;;;;;;;5.20;4.43;;;13.40;90.40;;;;;;5035651;28;20443;-75
2020/12/14 12:49:05;;;;;;;6.50;3.87;;;13.80;88.40;;;;;;5035479;28;20486;-75
2020/12/14 12:51:32;;;;;;;4.27;3.87;;;14.10;85.80;;;;;;5035512;28;20469;-75
2020/12/14 12:53:58;;;;;;;6.13;3.70;;;14.10;83.80;;;;;;5035502;28;20434;-75
2020/12/14 12:56:25;;;;;;;6.53;3.90;;;14.00;82.70;;;;;;5035771;28;20442;-76